createdAt,value
2018-08-20T00:00:03.114Z,18.7
2018-08-20T00:15:02.427Z,18.5
2018-08-20T00:30:02.790Z,18.4
2018-08-20T00:45:03.110Z,18.3
2018-08-20T01:00:02.437Z,18.4
2018-08-20T01:15:02.782Z,18.2
2018-08-20T01:30:03.193Z,18.1
2018-08-20T01:45:02.520Z,18.2
2018-08-20T02:00:02.836Z,17.9
2018-08-20T02:15:03.187Z,17.9
2018-08-20T02:30:02.606Z,17.7
2018-08-20T02:45:02.945Z,17.8
2018-08-20T03:00:02.340Z,17.4
2018-08-20T03:15:02.707Z,17.4
2018-08-20T03:30:03.138Z,17.2
2018-08-20T03:45:02.449Z,17.2
2018-08-20T04:00:02.810Z,17.1
2018-08-20T04:15:03.158Z,17.1
2018-08-20T04:30:02.595Z,17.1
2018-08-20T04:45:02.912Z,17
2018-08-20T05:00:03.223Z,17.1
2018-08-20T05:15:02.575Z,17.4
2018-08-20T05:30:02.967Z,17.8
2018-08-20T05:45:02.300Z,18.1
2018-08-20T06:00:02.620Z,18.5
2018-08-20T06:15:02.942Z,18.9
2018-08-20T06:30:02.404Z,19.3
2018-08-20T06:45:02.714Z,19.9
2018-08-20T07:00:03.046Z,20.4
2018-08-20T07:15:02.366Z,21.1
2018-08-20T07:30:02.810Z,21.8
2018-08-20T07:45:03.139Z,22.1
2018-08-20T08:00:02.466Z,22.9
2018-08-20T08:15:02.817Z,24.1
2018-08-20T08:30:03.215Z,25.1
2018-08-20T08:45:02.504Z,25.8
2018-08-20T09:00:02.888Z,26.1
2018-08-20T09:15:03.212Z,27.8
2018-08-20T09:30:02.610Z,27.7
2018-08-20T09:45:02.911Z,28.2
2018-08-20T10:00:03.213Z,28.9
2018-08-20T10:15:02.583Z,28.8
2018-08-20T10:30:02.994Z,28.8
2018-08-20T10:45:02.314Z,29.3
2018-08-20T11:00:02.628Z,30.8
2018-08-20T11:15:02.931Z,30.1
2018-08-20T11:30:02.342Z,30.5
2018-08-20T11:45:02.712Z,31.1
2018-08-20T12:00:02.996Z,31.3
2018-08-20T12:15:02.352Z,31.4
2018-08-20T12:30:02.742Z,31.9
2018-08-20T12:45:03.096Z,31.1
2018-08-20T13:00:02.465Z,31.1
2018-08-20T13:15:02.804Z,31
2018-08-20T13:30:03.192Z,31.1
2018-08-20T13:45:02.583Z,31.1
2018-08-20T14:00:02.892Z,31.4
2018-08-20T14:15:03.201Z,30.9
2018-08-20T14:30:02.625Z,30.6
2018-08-20T14:45:02.933Z,30.9
2018-08-20T15:00:03.268Z,31.9
2018-08-20T15:15:02.629Z,31.9
2018-08-20T15:30:03.081Z,30.6
2018-08-20T15:45:02.381Z,30.4
2018-08-20T16:00:02.709Z,30.2
2018-08-20T16:15:03.058Z,29.5
2018-08-20T16:30:02.507Z,29.5
2018-08-20T16:45:02.858Z,28.8
2018-08-20T17:00:03.217Z,28.2
2018-08-20T17:15:02.492Z,27.8
2018-08-20T17:30:02.902Z,27.5
2018-08-20T17:45:03.210Z,26.8
2018-08-20T18:00:02.592Z,25.9
2018-08-20T18:15:02.888Z,24.7
2018-08-20T18:30:02.307Z,24.3
2018-08-20T18:45:02.630Z,23.4
2018-08-20T19:00:02.920Z,23
2018-08-20T19:15:02.314Z,22.4
2018-08-20T19:30:02.716Z,21.9
2018-08-20T19:45:03.024Z,21.8
2018-08-20T20:00:02.334Z,21.4
2018-08-20T20:15:02.672Z,21.1
2018-08-20T20:30:03.061Z,20.8
2018-08-20T20:45:02.411Z,20.6
2018-08-20T21:00:02.724Z,20.4
2018-08-20T21:15:03.051Z,20.2
2018-08-20T21:30:02.471Z,20
2018-08-20T21:45:02.799Z,19.8
2018-08-20T22:00:03.114Z,19.8
2018-08-20T22:15:02.381Z,19.4
2018-08-20T22:30:02.797Z,19.2
2018-08-20T22:45:03.105Z,19
2018-08-20T23:00:02.511Z,19
2018-08-20T23:15:02.810Z,18.8
2018-08-20T23:30:03.208Z,18.8
2018-08-20T23:45:02.539Z,18.6
